首页
METAR-TAF:

METAR-TAF

机场 :

Grazzanise, 意大利

纬度: 41-03N, 经度: 014-04E, 海拔: 9米

当前天气观测

该预报发布于1小时和12分钟前的07:55 UTC
风速6节,风向东北
温度 19°C
湿度 78%
气压 1020 hPa
能见度10公里或以上
1500米以下无云,无积雨云

METAR: LIRM 170755Z 05006KT CAVOK 19/15 Q1020 RMK FEW FEW200 VIS MIN 9999 WIND THR06 04007KT BLU

时间: 11:07 (09:07 UTC)

预报

该预报发布于1小时和7分钟前的08:00 UTC
预报有效从17日的 09点(UTC)到 17日的 18点(UTC)
风速5节,风向东北
能见度10公里或以上
1500米以下无云,无积雨云

TAF: LIRM 170800Z 1709/1718 05005KT CAVOK

超过4000个机场的气象观测和天气预报(METAR&TAF报告)。

可查询的气象台以黄色和红色小点在地图上表示。

将鼠标移到小点上方,可查看气象台名称。

然后点击查看天气观测和预报。

如需切换地图:点击带黑十字的绿色按钮放大地图;点击带横线的绿色按钮缩小地图;或者点击绿色箭头查看邻近地区的地图。


METAR-TAF: